sensor_id;sensor_type;location;lat;lon;timestamp;P1;durP1;ratioP1;P2;durP2;ratioP2
11819;SDS011;5967;48.944;9.240;2022-09-09T00:02:14;3.30;;;1.60;;
11819;SDS011;5967;48.944;9.240;2022-09-09T00:04:46;4.57;;;1.60;;
11819;SDS011;5967;48.944;9.240;2022-09-09T00:10:01;2.37;;;1.60;;
11819;SDS011;5967;48.944;9.240;2022-09-09T00:12:57;5.93;;;1.37;;
11819;SDS011;5967;48.944;9.240;2022-09-09T00:18:28;4.37;;;1.63;;
11819;SDS011;5967;48.944;9.240;2022-09-09T00:23:28;4.47;;;1.50;;
11819;SDS011;5967;48.944;9.240;2022-09-09T00:29:55;2.90;;;1.87;;
11819;SDS011;5967;48.944;9.240;2022-09-09T00:32:15;3.33;;;1.50;;
11819;SDS011;5967;48.944;9.240;2022-09-09T00:34:57;3.77;;;1.60;;
11819;SDS011;5967;48.944;9.240;2022-09-09T00:37:30;4.30;;;1.70;;
11819;SDS011;5967;48.944;9.240;2022-09-09T00:39:58;3.37;;;1.80;;
11819;SDS011;5967;48.944;9.240;2022-09-09T00:42:33;4.23;;;1.47;;
11819;SDS011;5967;48.944;9.240;2022-09-09T00:47:57;3.27;;;1.67;;
11819;SDS011;5967;48.944;9.240;2022-09-09T00:50:42;3.63;;;1.70;;
11819;SDS011;5967;48.944;9.240;2022-09-09T00:53:17;1.97;;;1.67;;
11819;SDS011;5967;48.944;9.240;2022-09-09T00:55:49;4.77;;;1.50;;
11819;SDS011;5967;48.944;9.240;2022-09-09T00:58:26;4.10;;;1.40;;
11819;SDS011;5967;48.944;9.240;2022-09-09T01:00:56;3.13;;;1.53;;
11819;SDS011;5967;48.944;9.240;2022-09-09T01:11:48;3.70;;;1.37;;
11819;SDS011;5967;48.944;9.240;2022-09-09T01:16:50;3.33;;;1.37;;
11819;SDS011;5967;48.944;9.240;2022-09-09T01:19:27;6.87;;;1.53;;
11819;SDS011;5967;48.944;9.240;2022-09-09T01:27:44;3.37;;;1.60;;
11819;SDS011;5967;48.944;9.240;2022-09-09T01:30:14;4.83;;;1.63;;
11819;SDS011;5967;48.944;9.240;2022-09-09T01:32:46;3.07;;;1.50;;
11819;SDS011;5967;48.944;9.240;2022-09-09T01:37:56;3.10;;;1.40;;
11819;SDS011;5967;48.944;9.240;2022-09-09T01:40:22;2.83;;;1.70;;
11819;SDS011;5967;48.944;9.240;2022-09-09T01:42:49;2.00;;;1.40;;
11819;SDS011;5967;48.944;9.240;2022-09-09T01:45:15;3.63;;;1.67;;
11819;SDS011;5967;48.944;9.240;2022-09-09T01:47:41;2.93;;;1.53;;
11819;SDS011;5967;48.944;9.240;2022-09-09T01:50:08;4.03;;;1.70;;
11819;SDS011;5967;48.944;9.240;2022-09-09T01:52:37;3.47;;;1.63;;
11819;SDS011;5967;48.944;9.240;2022-09-09T01:55:03;4.50;;;1.57;;
11819;SDS011;5967;48.944;9.240;2022-09-09T01:57:31;5.17;;;1.77;;
11819;SDS011;5967;48.944;9.240;2022-09-09T02:07:51;5.97;;;1.77;;
11819;SDS011;5967;48.944;9.240;2022-09-09T02:10:30;4.67;;;1.50;;
11819;SDS011;5967;48.944;9.240;2022-09-09T02:13:05;2.93;;;1.60;;
11819;SDS011;5967;48.944;9.240;2022-09-09T02:15:40;2.07;;;1.30;;
11819;SDS011;5967;48.944;9.240;2022-09-09T02:18:12;3.50;;;1.57;;
11819;SDS011;5967;48.944;9.240;2022-09-09T02:20:41;2.83;;;1.70;;
11819;SDS011;5967;48.944;9.240;2022-09-09T02:23:09;4.87;;;1.50;;
11819;SDS011;5967;48.944;9.240;2022-09-09T02:25:37;5.70;;;2.27;;
11819;SDS011;5967;48.944;9.240;2022-09-09T02:28:06;4.20;;;1.80;;
11819;SDS011;5967;48.944;9.240;2022-09-09T02:30:35;2.53;;;1.47;;
11819;SDS011;5967;48.944;9.240;2022-09-09T02:33:03;3.93;;;1.57;;
11819;SDS011;5967;48.944;9.240;2022-09-09T02:35:34;2.90;;;1.53;;
11819;SDS011;5967;48.944;9.240;2022-09-09T02:38:07;4.30;;;1.80;;
11819;SDS011;5967;48.944;9.240;2022-09-09T02:40:38;3.90;;;1.77;;
11819;SDS011;5967;48.944;9.240;2022-09-09T02:43:04;4.30;;;1.83;;
11819;SDS011;5967;48.944;9.240;2022-09-09T02:45:38;3.43;;;1.77;;
11819;SDS011;5967;48.944;9.240;2022-09-09T02:48:57;4.00;;;1.40;;
11819;SDS011;5967;48.944;9.240;2022-09-09T02:51:23;4.40;;;1.57;;
11819;SDS011;5967;48.944;9.240;2022-09-09T02:53:59;3.17;;;1.43;;
11819;SDS011;5967;48.944;9.240;2022-09-09T02:56:36;5.17;;;1.53;;
11819;SDS011;5967;48.944;9.240;2022-09-09T02:59:08;3.00;;;1.47;;
11819;SDS011;5967;48.944;9.240;2022-09-09T03:01:34;2.97;;;1.40;;
11819;SDS011;5967;48.944;9.240;2022-09-09T03:04:00;5.40;;;1.57;;
11819;SDS011;5967;48.944;9.240;2022-09-09T03:06:27;3.90;;;1.87;;
11819;SDS011;5967;48.944;9.240;2022-09-09T03:08:53;3.37;;;1.80;;
11819;SDS011;5967;48.944;9.240;2022-09-09T03:11:18;3.07;;;1.27;;
11819;SDS011;5967;48.944;9.240;2022-09-09T03:13:44;3.63;;;1.83;;
11819;SDS011;5967;48.944;9.240;2022-09-09T03:16:09;1.50;;;1.33;;
11819;SDS011;5967;48.944;9.240;2022-09-09T03:18:35;4.13;;;1.73;;
11819;SDS011;5967;48.944;9.240;2022-09-09T03:21:01;3.53;;;1.30;;
11819;SDS011;5967;48.944;9.240;2022-09-09T03:23:26;4.27;;;1.13;;
11819;SDS011;5967;48.944;9.240;2022-09-09T03:25:53;4.00;;;1.67;;
11819;SDS011;5967;48.944;9.240;2022-09-09T03:28:21;4.27;;;1.50;;
11819;SDS011;5967;48.944;9.240;2022-09-09T03:30:48;2.60;;;1.30;;
11819;SDS011;5967;48.944;9.240;2022-09-09T03:33:14;2.63;;;1.27;;
11819;SDS011;5967;48.944;9.240;2022-09-09T03:35:44;3.77;;;1.40;;
11819;SDS011;5967;48.944;9.240;2022-09-09T03:38:13;5.07;;;1.50;;
11819;SDS011;5967;48.944;9.240;2022-09-09T03:40:39;4.13;;;1.50;;
11819;SDS011;5967;48.944;9.240;2022-09-09T03:43:04;3.67;;;1.27;;
11819;SDS011;5967;48.944;9.240;2022-09-09T03:45:30;2.43;;;1.50;;
11819;SDS011;5967;48.944;9.240;2022-09-09T03:47:55;2.00;;;1.53;;
11819;SDS011;5967;48.944;9.240;2022-09-09T03:50:22;2.87;;;1.60;;
11819;SDS011;5967;48.944;9.240;2022-09-09T03:52:48;3.87;;;1.47;;
11819;SDS011;5967;48.944;9.240;2022-09-09T03:55:13;3.70;;;1.60;;
11819;SDS011;5967;48.944;9.240;2022-09-09T03:57:39;5.23;;;1.40;;
11819;SDS011;5967;48.944;9.240;2022-09-09T04:00:05;6.03;;;1.50;;
11819;SDS011;5967;48.944;9.240;2022-09-09T04:02:32;3.10;;;1.53;;
11819;SDS011;5967;48.944;9.240;2022-09-09T04:04:58;5.73;;;1.47;;
11819;SDS011;5967;48.944;9.240;2022-09-09T04:07:24;2.27;;;1.30;;
11819;SDS011;5967;48.944;9.240;2022-09-09T04:09:52;3.30;;;1.53;;
11819;SDS011;5967;48.944;9.240;2022-09-09T04:12:18;3.40;;;1.50;;
11819;SDS011;5967;48.944;9.240;2022-09-09T04:14:43;4.03;;;1.73;;
11819;SDS011;5967;48.944;9.240;2022-09-09T04:17:09;4.07;;;1.50;;
11819;SDS011;5967;48.944;9.240;2022-09-09T04:19:35;2.93;;;1.63;;
11819;SDS011;5967;48.944;9.240;2022-09-09T04:22:00;3.43;;;1.60;;
11819;SDS011;5967;48.944;9.240;2022-09-09T04:24:26;3.67;;;1.43;;
11819;SDS011;5967;48.944;9.240;2022-09-09T04:26:54;5.00;;;1.67;;
11819;SDS011;5967;48.944;9.240;2022-09-09T04:29:20;6.93;;;1.83;;
11819;SDS011;5967;48.944;9.240;2022-09-09T04:31:46;2.97;;;1.30;;
11819;SDS011;5967;48.944;9.240;2022-09-09T04:34:11;6.23;;;1.70;;
11819;SDS011;5967;48.944;9.240;2022-09-09T04:36:37;5.33;;;1.37;;
11819;SDS011;5967;48.944;9.240;2022-09-09T04:39:04;1.70;;;1.40;;
11819;SDS011;5967;48.944;9.240;2022-09-09T04:41:32;3.70;;;1.47;;
11819;SDS011;5967;48.944;9.240;2022-09-09T04:43:57;5.40;;;1.47;;
11819;SDS011;5967;48.944;9.240;2022-09-09T04:46:25;4.50;;;1.40;;
11819;SDS011;5967;48.944;9.240;2022-09-09T04:48:51;1.77;;;1.33;;
11819;SDS011;5967;48.944;9.240;2022-09-09T04:51:18;5.63;;;1.30;;
11819;SDS011;5967;48.944;9.240;2022-09-09T04:53:44;1.87;;;1.20;;
11819;SDS011;5967;48.944;9.240;2022-09-09T04:56:13;4.20;;;2.23;;
11819;SDS011;5967;48.944;9.240;2022-09-09T04:58:40;15.87;;;8.77;;
11819;SDS011;5967;48.944;9.240;2022-09-09T05:01:12;10.97;;;5.40;;
11819;SDS011;5967;48.944;9.240;2022-09-09T05:03:40;11.57;;;5.90;;
11819;SDS011;5967;48.944;9.240;2022-09-09T05:06:13;8.70;;;4.57;;
11819;SDS011;5967;48.944;9.240;2022-09-09T05:08:41;7.00;;;2.77;;
11819;SDS011;5967;48.944;9.240;2022-09-09T05:11:23;2.90;;;1.40;;
11819;SDS011;5967;48.944;9.240;2022-09-09T05:13:51;3.20;;;2.10;;
11819;SDS011;5967;48.944;9.240;2022-09-09T05:16:17;5.97;;;1.60;;
11819;SDS011;5967;48.944;9.240;2022-09-09T05:18:43;3.17;;;1.57;;
11819;SDS011;5967;48.944;9.240;2022-09-09T05:21:10;3.90;;;1.90;;
11819;SDS011;5967;48.944;9.240;2022-09-09T05:23:36;8.87;;;5.67;;
11819;SDS011;5967;48.944;9.240;2022-09-09T05:26:02;6.97;;;4.13;;
11819;SDS011;5967;48.944;9.240;2022-09-09T05:28:29;5.77;;;4.50;;
11819;SDS011;5967;48.944;9.240;2022-09-09T05:30:58;5.60;;;3.20;;
11819;SDS011;5967;48.944;9.240;2022-09-09T05:33:26;6.87;;;2.13;;
11819;SDS011;5967;48.944;9.240;2022-09-09T05:35:59;6.77;;;2.47;;
11819;SDS011;5967;48.944;9.240;2022-09-09T05:38:27;4.77;;;2.50;;
11819;SDS011;5967;48.944;9.240;2022-09-09T05:40:54;4.80;;;1.50;;
11819;SDS011;5967;48.944;9.240;2022-09-09T05:43:21;3.93;;;1.70;;
11819;SDS011;5967;48.944;9.240;2022-09-09T05:45:47;5.17;;;2.13;;
11819;SDS011;5967;48.944;9.240;2022-09-09T05:48:14;4.50;;;1.77;;
11819;SDS011;5967;48.944;9.240;2022-09-09T05:50:41;4.90;;;2.07;;
11819;SDS011;5967;48.944;9.240;2022-09-09T05:53:07;4.80;;;2.13;;
11819;SDS011;5967;48.944;9.240;2022-09-09T05:55:34;5.40;;;1.60;;
11819;SDS011;5967;48.944;9.240;2022-09-09T05:58:00;4.23;;;1.83;;
11819;SDS011;5967;48.944;9.240;2022-09-09T06:00:26;7.17;;;1.53;;
11819;SDS011;5967;48.944;9.240;2022-09-09T06:02:52;2.63;;;1.40;;
11819;SDS011;5967;48.944;9.240;2022-09-09T06:05:18;4.27;;;1.47;;
11819;SDS011;5967;48.944;9.240;2022-09-09T06:07:44;4.87;;;1.50;;
11819;SDS011;5967;48.944;9.240;2022-09-09T06:10:10;4.00;;;1.50;;
11819;SDS011;5967;48.944;9.240;2022-09-09T06:12:42;3.27;;;1.37;;
11819;SDS011;5967;48.944;9.240;2022-09-09T06:15:10;3.80;;;1.60;;
11819;SDS011;5967;48.944;9.240;2022-09-09T06:17:36;3.13;;;1.50;;
11819;SDS011;5967;48.944;9.240;2022-09-09T06:20:04;4.53;;;1.50;;
11819;SDS011;5967;48.944;9.240;2022-09-09T06:22:30;5.27;;;1.40;;
11819;SDS011;5967;48.944;9.240;2022-09-09T06:24:56;2.50;;;1.50;;
11819;SDS011;5967;48.944;9.240;2022-09-09T06:27:22;3.63;;;1.73;;
11819;SDS011;5967;48.944;9.240;2022-09-09T06:29:47;2.20;;;1.47;;
11819;SDS011;5967;48.944;9.240;2022-09-09T06:32:13;4.03;;;1.20;;
11819;SDS011;5967;48.944;9.240;2022-09-09T06:34:42;6.43;;;1.73;;
11819;SDS011;5967;48.944;9.240;2022-09-09T06:37:10;5.47;;;1.50;;
11819;SDS011;5967;48.944;9.240;2022-09-09T06:39:36;4.10;;;1.60;;
11819;SDS011;5967;48.944;9.240;2022-09-09T06:42:01;5.47;;;1.77;;
11819;SDS011;5967;48.944;9.240;2022-09-09T06:44:27;7.70;;;1.80;;
11819;SDS011;5967;48.944;9.240;2022-09-09T06:46:53;3.50;;;1.53;;
11819;SDS011;5967;48.944;9.240;2022-09-09T06:49:18;4.63;;;1.60;;
11819;SDS011;5967;48.944;9.240;2022-09-09T06:51:44;4.70;;;1.60;;
11819;SDS011;5967;48.944;9.240;2022-09-09T06:54:10;2.83;;;1.70;;
11819;SDS011;5967;48.944;9.240;2022-09-09T06:56:40;8.43;;;1.37;;
11819;SDS011;5967;48.944;9.240;2022-09-09T06:59:08;4.17;;;1.67;;
11819;SDS011;5967;48.944;9.240;2022-09-09T07:01:35;2.80;;;1.33;;
11819;SDS011;5967;48.944;9.240;2022-09-09T07:04:16;3.80;;;1.30;;
11819;SDS011;5967;48.944;9.240;2022-09-09T07:06:45;3.27;;;1.37;;
11819;SDS011;5967;48.944;9.240;2022-09-09T07:09:15;4.63;;;1.63;;
11819;SDS011;5967;48.944;9.240;2022-09-09T07:11:47;6.03;;;1.40;;
11819;SDS011;5967;48.944;9.240;2022-09-09T07:14:27;6.03;;;1.60;;
11819;SDS011;5967;48.944;9.240;2022-09-09T07:17:11;2.57;;;1.40;;
11819;SDS011;5967;48.944;9.240;2022-09-09T07:19:39;3.20;;;1.70;;
11819;SDS011;5967;48.944;9.240;2022-09-09T07:22:05;6.30;;;2.00;;
11819;SDS011;5967;48.944;9.240;2022-09-09T07:24:31;7.27;;;2.20;;
11819;SDS011;5967;48.944;9.240;2022-09-09T07:26:59;8.43;;;2.20;;
11819;SDS011;5967;48.944;9.240;2022-09-09T07:29:27;6.17;;;2.77;;
11819;SDS011;5967;48.944;9.240;2022-09-09T07:31:53;2.93;;;1.63;;
11819;SDS011;5967;48.944;9.240;2022-09-09T07:34:18;4.00;;;1.73;;
11819;SDS011;5967;48.944;9.240;2022-09-09T07:36:49;6.80;;;2.03;;
11819;SDS011;5967;48.944;9.240;2022-09-09T07:39:18;8.70;;;1.90;;
11819;SDS011;5967;48.944;9.240;2022-09-09T07:41:47;5.03;;;1.50;;
11819;SDS011;5967;48.944;9.240;2022-09-09T07:44:23;6.53;;;2.13;;
11819;SDS011;5967;48.944;9.240;2022-09-09T07:46:52;7.10;;;2.50;;
11819;SDS011;5967;48.944;9.240;2022-09-09T07:49:21;3.77;;;2.00;;
11819;SDS011;5967;48.944;9.240;2022-09-09T07:51:50;3.73;;;2.10;;
11819;SDS011;5967;48.944;9.240;2022-09-09T07:54:21;8.30;;;1.83;;
11819;SDS011;5967;48.944;9.240;2022-09-09T07:56:48;3.50;;;1.50;;
11819;SDS011;5967;48.944;9.240;2022-09-09T07:59:17;2.30;;;1.40;;
11819;SDS011;5967;48.944;9.240;2022-09-09T08:01:47;3.90;;;1.37;;
11819;SDS011;5967;48.944;9.240;2022-09-09T08:04:18;4.50;;;1.60;;
11819;SDS011;5967;48.944;9.240;2022-09-09T08:06:49;1.90;;;1.20;;
11819;SDS011;5967;48.944;9.240;2022-09-09T08:09:21;4.87;;;1.67;;
11819;SDS011;5967;48.944;9.240;2022-09-09T08:11:52;3.77;;;1.70;;
11819;SDS011;5967;48.944;9.240;2022-09-09T08:14:21;4.07;;;1.87;;
11819;SDS011;5967;48.944;9.240;2022-09-09T08:16:55;3.60;;;1.37;;
11819;SDS011;5967;48.944;9.240;2022-09-09T08:19:24;4.60;;;1.30;;
11819;SDS011;5967;48.944;9.240;2022-09-09T08:21:50;3.70;;;1.23;;
11819;SDS011;5967;48.944;9.240;2022-09-09T08:24:16;4.63;;;1.40;;
11819;SDS011;5967;48.944;9.240;2022-09-09T08:26:45;2.67;;;1.20;;
11819;SDS011;5967;48.944;9.240;2022-09-09T08:29:15;6.97;;;1.47;;
11819;SDS011;5967;48.944;9.240;2022-09-09T08:31:47;4.10;;;1.40;;
11819;SDS011;5967;48.944;9.240;2022-09-09T08:34:16;5.20;;;1.35;;
11819;SDS011;5967;48.944;9.240;2022-09-09T08:36:45;6.47;;;1.30;;
11819;SDS011;5967;48.944;9.240;2022-09-09T08:39:19;3.53;;;1.33;;
11819;SDS011;5967;48.944;9.240;2022-09-09T08:50:37;2.00;;;1.20;;
11819;SDS011;5967;48.944;9.240;2022-09-09T09:03:35;4.68;;;1.30;;
11819;SDS011;5967;48.944;9.240;2022-09-09T09:11:49;3.70;;;1.27;;
11819;SDS011;5967;48.944;9.240;2022-09-09T09:14:23;3.40;;;1.33;;
11819;SDS011;5967;48.944;9.240;2022-09-09T09:19:41;5.00;;;1.33;;
11819;SDS011;5967;48.944;9.240;2022-09-09T09:27:46;6.15;;;1.45;;
11819;SDS011;5967;48.944;9.240;2022-09-09T09:30:39;3.88;;;1.00;;
11819;SDS011;5967;48.944;9.240;2022-09-09T09:35:55;2.53;;;1.05;;
11819;SDS011;5967;48.944;9.240;2022-09-09T09:38:21;3.08;;;1.10;;
11819;SDS011;5967;48.944;9.240;2022-09-09T09:40:52;4.20;;;1.17;;
11819;SDS011;5967;48.944;9.240;2022-09-09T09:43:26;2.30;;;1.08;;
11819;SDS011;5967;48.944;9.240;2022-09-09T09:45:54;2.53;;;0.95;;
11819;SDS011;5967;48.944;9.240;2022-09-09T09:48:22;2.13;;;1.05;;
11819;SDS011;5967;48.944;9.240;2022-09-09T09:53:24;3.60;;;1.20;;
11819;SDS011;5967;48.944;9.240;2022-09-09T09:55:58;2.97;;;1.10;;
11819;SDS011;5967;48.944;9.240;2022-09-09T09:58:33;2.00;;;0.90;;
11819;SDS011;5967;48.944;9.240;2022-09-09T10:01:20;5.13;;;1.30;;
11819;SDS011;5967;48.944;9.240;2022-09-09T10:03:58;4.07;;;1.20;;
11819;SDS011;5967;48.944;9.240;2022-09-09T10:06:40;3.20;;;1.38;;
11819;SDS011;5967;48.944;9.240;2022-09-09T10:15:02;4.60;;;1.27;;
11819;SDS011;5967;48.944;9.240;2022-09-09T10:22:50;4.18;;;1.33;;
11819;SDS011;5967;48.944;9.240;2022-09-09T10:25:32;3.58;;;1.30;;
11819;SDS011;5967;48.944;9.240;2022-09-09T10:33:34;2.70;;;1.23;;
11819;SDS011;5967;48.944;9.240;2022-09-09T10:36:13;2.05;;;1.00;;
11819;SDS011;5967;48.944;9.240;2022-09-09T10:41:26;5.38;;;1.27;;
11819;SDS011;5967;48.944;9.240;2022-09-09T10:55:16;2.08;;;0.93;;
11819;SDS011;5967;48.944;9.240;2022-09-09T10:57:51;2.33;;;1.02;;
11819;SDS011;5967;48.944;9.240;2022-09-09T11:01:02;2.72;;;1.30;;
11819;SDS011;5967;48.944;9.240;2022-09-09T11:03:17;5.38;;;1.17;;
11819;SDS011;5967;48.944;9.240;2022-09-09T11:05:46;2.20;;;1.38;;
11819;SDS011;5967;48.944;9.240;2022-09-09T11:08:33;3.25;;;1.20;;
11819;SDS011;5967;48.944;9.240;2022-09-09T11:19:04;4.88;;;1.00;;
11819;SDS011;5967;48.944;9.240;2022-09-09T11:21:47;3.92;;;1.50;;
11819;SDS011;5967;48.944;9.240;2022-09-09T11:24:25;5.50;;;1.20;;
11819;SDS011;5967;48.944;9.240;2022-09-09T11:27:08;2.88;;;1.30;;
11819;SDS011;5967;48.944;9.240;2022-09-09T11:41:05;3.88;;;1.30;;
11819;SDS011;5967;48.944;9.240;2022-09-09T11:43:43;3.67;;;0.90;;
11819;SDS011;5967;48.944;9.240;2022-09-09T11:46:12;2.28;;;0.98;;
11819;SDS011;5967;48.944;9.240;2022-09-09T11:48:45;2.22;;;1.05;;
11819;SDS011;5967;48.944;9.240;2022-09-09T11:53:55;1.52;;;0.90;;
11819;SDS011;5967;48.944;9.240;2022-09-09T11:58:57;1.58;;;0.77;;
11819;SDS011;5967;48.944;9.240;2022-09-09T12:01:44;2.05;;;0.95;;
11819;SDS011;5967;48.944;9.240;2022-09-09T12:06:46;2.45;;;0.70;;
11819;SDS011;5967;48.944;9.240;2022-09-09T12:09:18;2.78;;;0.75;;
11819;SDS011;5967;48.944;9.240;2022-09-09T12:11:52;2.30;;;0.80;;
11819;SDS011;5967;48.944;9.240;2022-09-09T12:14:22;3.63;;;0.80;;
11819;SDS011;5967;48.944;9.240;2022-09-09T12:17:09;2.03;;;0.90;;
11819;SDS011;5967;48.944;9.240;2022-09-09T12:19:41;0.70;;;0.60;;
11819;SDS011;5967;48.944;9.240;2022-09-09T12:24:41;1.25;;;0.50;;
11819;SDS011;5967;48.944;9.240;2022-09-09T12:32:17;0.88;;;0.68;;
11819;SDS011;5967;48.944;9.240;2022-09-09T12:34:49;1.95;;;0.65;;
11819;SDS011;5967;48.944;9.240;2022-09-09T12:37:26;2.80;;;0.80;;
11819;SDS011;5967;48.944;9.240;2022-09-09T12:40:04;0.60;;;0.55;;
11819;SDS011;5967;48.944;9.240;2022-09-09T12:42:30;1.33;;;0.65;;
11819;SDS011;5967;48.944;9.240;2022-09-09T12:45:00;2.20;;;1.10;;
11819;SDS011;5967;48.944;9.240;2022-09-09T12:50:02;2.90;;;1.00;;
11819;SDS011;5967;48.944;9.240;2022-09-09T12:52:30;2.33;;;1.10;;
11819;SDS011;5967;48.944;9.240;2022-09-09T12:55:00;1.42;;;0.88;;
11819;SDS011;5967;48.944;9.240;2022-09-09T12:57:31;2.50;;;0.80;;
11819;SDS011;5967;48.944;9.240;2022-09-09T13:00:05;1.17;;;0.70;;
11819;SDS011;5967;48.944;9.240;2022-09-09T13:02:36;1.45;;;0.88;;
11819;SDS011;5967;48.944;9.240;2022-09-09T13:05:15;1.40;;;0.90;;
11819;SDS011;5967;48.944;9.240;2022-09-09T13:07:43;2.33;;;1.27;;
11819;SDS011;5967;48.944;9.240;2022-09-09T13:10:13;3.67;;;1.30;;
11819;SDS011;5967;48.944;9.240;2022-09-09T13:12:40;1.17;;;0.80;;
11819;SDS011;5967;48.944;9.240;2022-09-09T13:15:20;2.15;;;1.52;;
11819;SDS011;5967;48.944;9.240;2022-09-09T13:17:49;3.10;;;1.08;;
11819;SDS011;5967;48.944;9.240;2022-09-09T13:20:30;2.55;;;0.85;;
11819;SDS011;5967;48.944;9.240;2022-09-09T13:22:56;2.95;;;0.90;;
11819;SDS011;5967;48.944;9.240;2022-09-09T13:25:24;1.90;;;1.00;;
11819;SDS011;5967;48.944;9.240;2022-09-09T13:28:04;1.52;;;0.82;;
11819;SDS011;5967;48.944;9.240;2022-09-09T13:30:54;1.45;;;0.80;;
11819;SDS011;5967;48.944;9.240;2022-09-09T13:33:34;2.25;;;0.70;;
11819;SDS011;5967;48.944;9.240;2022-09-09T13:36:05;1.58;;;0.90;;
11819;SDS011;5967;48.944;9.240;2022-09-09T13:38:35;1.55;;;0.80;;
11819;SDS011;5967;48.944;9.240;2022-09-09T13:41:19;1.00;;;0.60;;
11819;SDS011;5967;48.944;9.240;2022-09-09T13:43:49;2.70;;;0.95;;
11819;SDS011;5967;48.944;9.240;2022-09-09T13:46:26;1.67;;;0.90;;
11819;SDS011;5967;48.944;9.240;2022-09-09T13:49:00;1.90;;;1.33;;
11819;SDS011;5967;48.944;9.240;2022-09-09T13:51:29;2.03;;;0.80;;
11819;SDS011;5967;48.944;9.240;2022-09-09T13:54:04;2.03;;;0.90;;
11819;SDS011;5967;48.944;9.240;2022-09-09T13:56:34;1.50;;;0.85;;
11819;SDS011;5967;48.944;9.240;2022-09-09T13:59:02;2.97;;;0.93;;
11819;SDS011;5967;48.944;9.240;2022-09-09T14:01:29;1.73;;;0.80;;
11819;SDS011;5967;48.944;9.240;2022-09-09T14:03:54;4.47;;;1.10;;
11819;SDS011;5967;48.944;9.240;2022-09-09T14:06:25;2.30;;;0.80;;
11819;SDS011;5967;48.944;9.240;2022-09-09T14:08:54;1.65;;;0.70;;
11819;SDS011;5967;48.944;9.240;2022-09-09T14:11:20;4.35;;;1.10;;
11819;SDS011;5967;48.944;9.240;2022-09-09T14:13:46;2.47;;;0.80;;
11819;SDS011;5967;48.944;9.240;2022-09-09T14:16:15;2.75;;;1.00;;
11819;SDS011;5967;48.944;9.240;2022-09-09T14:18:42;2.75;;;1.10;;
11819;SDS011;5967;48.944;9.240;2022-09-09T14:21:08;1.77;;;0.90;;
11819;SDS011;5967;48.944;9.240;2022-09-09T14:23:34;4.28;;;0.68;;
11819;SDS011;5967;48.944;9.240;2022-09-09T14:26:10;2.47;;;0.90;;
11819;SDS011;5967;48.944;9.240;2022-09-09T14:28:36;1.77;;;0.80;;
11819;SDS011;5967;48.944;9.240;2022-09-09T14:31:05;3.22;;;0.90;;
11819;SDS011;5967;48.944;9.240;2022-09-09T14:33:38;2.17;;;1.05;;
11819;SDS011;5967;48.944;9.240;2022-09-09T14:36:04;3.78;;;0.90;;
11819;SDS011;5967;48.944;9.240;2022-09-09T14:38:30;4.28;;;0.93;;
11819;SDS011;5967;48.944;9.240;2022-09-09T14:40:58;1.70;;;0.88;;
11819;SDS011;5967;48.944;9.240;2022-09-09T14:43:24;1.38;;;0.73;;
11819;SDS011;5967;48.944;9.240;2022-09-09T14:45:53;2.30;;;0.90;;
11819;SDS011;5967;48.944;9.240;2022-09-09T14:48:19;0.70;;;0.60;;
11819;SDS011;5967;48.944;9.240;2022-09-09T14:50:49;3.85;;;1.20;;
11819;SDS011;5967;48.944;9.240;2022-09-09T14:53:16;2.10;;;0.80;;
11819;SDS011;5967;48.944;9.240;2022-09-09T14:55:44;2.00;;;0.98;;
11819;SDS011;5967;48.944;9.240;2022-09-09T14:58:11;2.05;;;0.93;;
11819;SDS011;5967;48.944;9.240;2022-09-09T15:00:40;2.38;;;0.93;;
11819;SDS011;5967;48.944;9.240;2022-09-09T15:03:06;1.23;;;0.80;;
11819;SDS011;5967;48.944;9.240;2022-09-09T15:05:43;2.08;;;0.80;;
11819;SDS011;5967;48.944;9.240;2022-09-09T15:08:13;1.17;;;0.82;;
11819;SDS011;5967;48.944;9.240;2022-09-09T15:10:43;2.10;;;0.85;;
11819;SDS011;5967;48.944;9.240;2022-09-09T15:13:09;1.52;;;1.10;;
11819;SDS011;5967;48.944;9.240;2022-09-09T15:15:35;1.35;;;0.70;;
11819;SDS011;5967;48.944;9.240;2022-09-09T15:18:01;1.67;;;0.90;;
11819;SDS011;5967;48.944;9.240;2022-09-09T15:20:26;1.52;;;0.95;;
11819;SDS011;5967;48.944;9.240;2022-09-09T15:22:52;1.20;;;0.90;;
11819;SDS011;5967;48.944;9.240;2022-09-09T15:25:17;1.60;;;0.95;;
11819;SDS011;5967;48.944;9.240;2022-09-09T15:27:43;1.20;;;0.70;;
11819;SDS011;5967;48.944;9.240;2022-09-09T15:30:09;2.80;;;0.60;;
11819;SDS011;5967;48.944;9.240;2022-09-09T15:32:35;1.13;;;0.60;;
11819;SDS011;5967;48.944;9.240;2022-09-09T15:35:00;3.03;;;0.88;;
11819;SDS011;5967;48.944;9.240;2022-09-09T15:37:26;1.58;;;0.70;;
11819;SDS011;5967;48.944;9.240;2022-09-09T15:39:52;0.95;;;0.50;;
11819;SDS011;5967;48.944;9.240;2022-09-09T15:42:17;1.63;;;0.80;;
11819;SDS011;5967;48.944;9.240;2022-09-09T15:44:43;0.68;;;0.50;;
11819;SDS011;5967;48.944;9.240;2022-09-09T15:47:11;5.18;;;0.82;;
11819;SDS011;5967;48.944;9.240;2022-09-09T15:49:40;1.40;;;0.80;;
11819;SDS011;5967;48.944;9.240;2022-09-09T15:52:06;1.20;;;0.60;;
11819;SDS011;5967;48.944;9.240;2022-09-09T15:54:38;0.98;;;0.60;;
11819;SDS011;5967;48.944;9.240;2022-09-09T15:57:04;1.90;;;1.05;;
11819;SDS011;5967;48.944;9.240;2022-09-09T15:59:31;2.83;;;0.80;;
11819;SDS011;5967;48.944;9.240;2022-09-09T16:01:59;1.92;;;0.90;;
11819;SDS011;5967;48.944;9.240;2022-09-09T16:04:28;2.38;;;1.08;;
11819;SDS011;5967;48.944;9.240;2022-09-09T16:07:00;1.48;;;0.70;;
11819;SDS011;5967;48.944;9.240;2022-09-09T16:09:35;0.98;;;0.60;;
11819;SDS011;5967;48.944;9.240;2022-09-09T16:12:01;0.82;;;0.50;;
11819;SDS011;5967;48.944;9.240;2022-09-09T16:14:49;2.67;;;0.90;;
11819;SDS011;5967;48.944;9.240;2022-09-09T16:17:15;1.95;;;0.80;;
11819;SDS011;5967;48.944;9.240;2022-09-09T16:19:48;1.83;;;0.70;;
11819;SDS011;5967;48.944;9.240;2022-09-09T16:22:13;2.00;;;1.05;;
11819;SDS011;5967;48.944;9.240;2022-09-09T16:24:42;2.55;;;0.70;;
11819;SDS011;5967;48.944;9.240;2022-09-09T16:27:17;2.13;;;0.95;;
11819;SDS011;5967;48.944;9.240;2022-09-09T16:29:43;1.70;;;0.75;;
11819;SDS011;5967;48.944;9.240;2022-09-09T16:32:08;4.07;;;0.82;;
11819;SDS011;5967;48.944;9.240;2022-09-09T16:34:35;3.13;;;0.65;;
11819;SDS011;5967;48.944;9.240;2022-09-09T16:37:03;1.20;;;0.52;;
11819;SDS011;5967;48.944;9.240;2022-09-09T16:39:32;1.10;;;0.80;;
11819;SDS011;5967;48.944;9.240;2022-09-09T16:42:00;1.65;;;0.52;;
11819;SDS011;5967;48.944;9.240;2022-09-09T16:44:29;1.80;;;0.60;;
11819;SDS011;5967;48.944;9.240;2022-09-09T16:47:08;2.80;;;0.63;;
11819;SDS011;5967;48.944;9.240;2022-09-09T16:49:37;2.08;;;0.60;;
11819;SDS011;5967;48.944;9.240;2022-09-09T16:52:05;3.13;;;0.60;;
11819;SDS011;5967;48.944;9.240;2022-09-09T16:54:33;1.50;;;0.60;;
11819;SDS011;5967;48.944;9.240;2022-09-09T16:56:59;2.03;;;0.60;;
11819;SDS011;5967;48.944;9.240;2022-09-09T16:59:25;2.50;;;1.00;;
11819;SDS011;5967;48.944;9.240;2022-09-09T17:01:51;3.50;;;0.90;;
11819;SDS011;5967;48.944;9.240;2022-09-09T17:04:28;3.90;;;1.00;;
11819;SDS011;5967;48.944;9.240;2022-09-09T17:06:58;4.07;;;1.10;;
11819;SDS011;5967;48.944;9.240;2022-09-09T17:09:25;2.93;;;0.90;;
11819;SDS011;5967;48.944;9.240;2022-09-09T17:11:56;2.70;;;1.07;;
11819;SDS011;5967;48.944;9.240;2022-09-09T17:14:22;1.80;;;0.90;;
11819;SDS011;5967;48.944;9.240;2022-09-09T17:16:51;2.23;;;0.83;;
11819;SDS011;5967;48.944;9.240;2022-09-09T17:19:17;1.83;;;0.70;;
11819;SDS011;5967;48.944;9.240;2022-09-09T17:21:43;4.90;;;1.20;;
11819;SDS011;5967;48.944;9.240;2022-09-09T17:24:11;2.10;;;1.00;;
11819;SDS011;5967;48.944;9.240;2022-09-09T17:26:37;1.87;;;0.80;;
11819;SDS011;5967;48.944;9.240;2022-09-09T17:29:03;2.40;;;0.93;;
11819;SDS011;5967;48.944;9.240;2022-09-09T17:31:36;0.57;;;0.53;;
11819;SDS011;5967;48.944;9.240;2022-09-09T17:34:01;2.03;;;0.70;;
11819;SDS011;5967;48.944;9.240;2022-09-09T17:36:33;1.53;;;0.70;;
11819;SDS011;5967;48.944;9.240;2022-09-09T17:39:08;2.40;;;0.97;;
11819;SDS011;5967;48.944;9.240;2022-09-09T17:41:37;1.33;;;0.87;;
11819;SDS011;5967;48.944;9.240;2022-09-09T17:44:17;2.40;;;0.97;;
11819;SDS011;5967;48.944;9.240;2022-09-09T17:46:50;3.47;;;0.80;;